Time;durP1;ratioP1;P1;durP2;ratioP2;P2;SDS_P1;SDS_P2;PMS_P1;PMS_P2;Temp;Humidity;BMP_temperature;BMP_pressure;BME280_temperature;BME280_humidity;BME280_pressure;Samples;Min_cycle;Max_cycle;Signal;HPM_P1;HPM_P2
2021/12/04 00:01:41;;;;;;;0.20;0.20;;;;;;;1.97;100.00;99326.81;5024604;28;20045;-85
2021/12/04 00:04:19;;;;;;;0.20;0.20;;;;;;;1.96;100.00;99325.19;5033362;28;20394;-86
2021/12/04 00:06:52;;;;;;;;;;;;;;;2.00;100.00;99326.28;5032341;28;20050;-85
2021/12/04 00:09:22;;;;;;;0.20;0.20;;;;;;;1.96;100.00;99327.84;5035057;28;19921;-85
2021/12/04 00:11:55;;;;;;;0.20;0.20;;;;;;;1.99;100.00;99316.59;5032491;28;20058;-86
2021/12/04 00:14:29;;;;;;;0.20;0.20;;;;;;;1.96;100.00;99315.28;5035116;28;20045;-85
2021/12/04 00:16:58;;;;;;;0.10;0.10;;;;;;;1.96;100.00;99315.28;5028346;28;20046;-85
2021/12/04 00:19:31;;;;;;;0.20;0.20;;;;;;;1.85;100.00;99313.53;5040007;28;20045;-85
2021/12/04 00:22:01;;;;;;;0.20;0.20;;;;;;;1.99;100.00;99328.16;5033534;28;20041;-85
2021/12/04 00:24:31;;;;;;;0.20;0.20;;;;;;;1.91;100.00;99301.81;5033093;28;20061;-85
2021/12/04 00:27:05;;;;;;;0.20;0.20;;;;;;;1.92;100.00;99297.25;5038544;28;20044;-86
2021/12/04 00:29:33;;;;;;;0.20;0.20;;;;;;;2.07;100.00;99309.97;5040228;28;20037;-85
2021/12/04 00:32:11;;;;;;;0.20;0.20;;;;;;;2.07;100.00;99309.97;5048769;28;20057;-85
2021/12/04 00:34:49;;;;;;;0.20;0.20;;;;;;;2.01;100.00;99304.56;5028740;28;20052;-86
2021/12/04 00:37:35;;;;;;;0.20;0.20;;;;;;;2.07;100.00;99302.72;5042373;28;20405;-85
2021/12/04 00:43:25;;;;;;;0.20;0.20;;;;;;;2.12;100.00;99286.66;5033858;28;20065;-85
2021/12/04 00:49:09;;;;;;;0.20;0.20;;;;;;;2.06;100.00;99295.75;5040303;28;20075;-85
2021/12/04 00:51:39;;;;;;;0.20;0.20;;;;;;;2.01;100.00;99296.50;5028819;28;20045;-86
2021/12/04 00:54:13;;;;;;;0.20;0.20;;;;;;;2.01;100.00;99296.50;5034296;28;20042;-86
2021/12/04 00:56:44;;;;;;;0.20;0.20;;;;;;;2.04;100.00;99313.97;5031714;28;20038;-86
2021/12/04 00:59:17;;;;;;;0.20;0.20;;;;;;;2.03;100.00;99310.50;5042087;28;20045;-86
2021/12/04 01:01:46;;;;;;;0.20;0.20;;;;;;;2.03;100.00;99307.81;5041383;28;20501;-85
2021/12/04 01:04:20;;;;;;;0.20;0.20;;;;;;;2.03;100.00;99306.97;5037610;28;20045;-84
2021/12/04 01:06:54;;;;;;;0.25;0.25;;;;;;;2.04;100.00;99312.13;5030256;28;20065;-86
2021/12/04 01:09:24;;;;;;;0.20;0.20;;;;;;;2.11;100.00;99311.06;5054029;28;20045;-86
2021/12/04 01:11:59;;;;;;;0.10;0.10;;;;;;;2.14;100.00;99318.59;5033077;28;20041;-86
2021/12/04 01:14:32;;;;;;;0.20;0.20;;;;;;;2.07;100.00;99308.09;5027452;28;20049;-86
2021/12/04 01:17:05;;;;;;;0.20;0.20;;;;;;;2.04;100.00;99312.13;5031068;28;20049;-86
2021/12/04 01:19:39;;;;;;;0.15;0.15;;;;;;;2.07;100.00;99308.09;5031661;28;20052;-85
2021/12/04 01:22:07;;;;;;;0.20;0.20;;;;;;;2.14;100.00;99302.50;5031594;28;20056;-86
2021/12/04 01:24:40;;;;;;;0.20;0.20;;;;;;;2.11;100.00;99305.69;5030985;28;20050;-85
2021/12/04 01:27:15;;;;;;;0.20;0.20;;;;;;;2.07;100.00;99300.03;5035189;28;20056;-85
2021/12/04 01:29:48;;;;;;;0.20;0.20;;;;;;;2.08;100.00;99298.19;5030785;28;20050;-86
2021/12/04 01:32:21;;;;;;;0.20;0.20;;;;;;;2.13;100.00;99307.06;5031017;28;20053;-85
2021/12/04 01:34:50;;;;;;;0.20;0.20;;;;;;;2.12;100.00;99310.00;5034722;28;20409;-85
2021/12/04 01:37:23;;;;;;;0.20;0.20;;;;;;;2.11;100.00;99305.69;5041545;28;20421;-85
2021/12/04 01:39:56;;;;;;;0.28;0.28;;;;;;;2.11;100.00;99319.91;5041004;28;20049;-86
2021/12/04 01:42:34;;;;;;;0.20;0.20;;;;;;;2.16;100.00;99319.97;5042478;28;20042;-85
2021/12/04 01:45:05;;;;;;;0.20;0.20;;;;;;;2.16;100.00;99322.66;5033977;28;20468;-85
2021/12/04 01:47:33;;;;;;;0.20;0.20;;;;;;;2.03;100.00;99310.50;5029864;28;20048;-86
2021/12/04 01:50:08;;;;;;;0.20;0.20;;;;;;;2.06;100.00;99327.13;5027989;28;20042;-85
2021/12/04 01:52:41;;;;;;;0.20;0.20;;;;;;;2.09;100.00;99329.31;5034394;28;20500;-85
2021/12/04 01:55:14;;;;;;;0.28;0.28;;;;;;;2.10;100.00;99328.22;5036326;28;20059;-85
2021/12/04 01:57:44;;;;;;;0.20;0.20;;;;;;;2.06;100.00;99325.28;5039857;28;20087;-85
2021/12/04 02:00:17;;;;;;;0.20;0.20;;;;;;;1.99;100.00;99309.38;5033044;28;20053;-86
2021/12/04 02:02:52;;;;;;;0.20;0.20;;;;;;;2.13;100.00;99311.63;5029727;28;20068;-85
2021/12/04 02:05:25;;;;;;;0.20;0.20;;;;;;;2.14;100.00;99323.97;5029401;28;20088;-85
2021/12/04 02:07:58;;;;;;;0.20;0.20;;;;;;;2.13;100.00;99325.06;5037765;28;20044;-85
2021/12/04 02:10:32;;;;;;;0.20;0.20;;;;;;;2.11;100.00;99324.50;5032880;28;20036;-86
2021/12/04 02:13:02;;;;;;;0.20;0.20;;;;;;;2.12;100.00;99318.06;5026473;28;20049;-85
2021/12/04 02:15:30;;;;;;;0.25;0.25;;;;;;;2.05;100.00;99307.53;5030798;28;20060;-86
2021/12/04 02:17:59;;;;;;;0.20;0.20;;;;;;;2.11;100.00;99319.91;5031972;28;20049;-85
2021/12/04 02:20:32;;;;;;;0.20;0.20;;;;;;;2.03;100.00;99309.66;5045448;28;20057;-85
2021/12/04 02:23:02;;;;;;;0.20;0.20;;;;;;;2.11;100.00;99314.56;5043922;28;20046;-85
2021/12/04 02:25:36;;;;;;;0.20;0.20;;;;;;;2.10;100.00;99318.31;5029409;28;20037;-86
2021/12/04 02:28:11;;;;;;;0.20;0.20;;;;;;;2.16;100.00;99316.47;5031799;28;20041;-85
2021/12/04 02:30:47;;;;;;;0.20;0.20;;;;;;;2.17;100.00;99305.50;5030051;28;20033;-85
2021/12/04 02:33:16;;;;;;;0.10;0.10;;;;;;;2.14;100.00;99308.69;5039650;28;20054;-86
2021/12/04 02:35:53;;;;;;;0.20;0.20;;;;;;;2.01;100.00;99275.03;5026513;28;20506;-85
2021/12/04 02:38:26;;;;;;;0.30;0.30;;;;;;;2.20;100.00;99301.47;5032317;28;20076;-85
2021/12/04 02:41:02;;;;;;;0.20;0.20;;;;;;;2.14;100.00;99299.81;5039532;28;20037;-84
2021/12/04 02:43:34;;;;;;;0.13;0.13;;;;;;;2.12;100.00;99291.22;5041065;28;20045;-85
2021/12/04 02:46:02;;;;;;;0.20;0.20;;;;;;;2.22;100.00;99312.75;5037879;28;20044;-85
2021/12/04 02:48:35;;;;;;;0.20;0.20;;;;;;;2.24;100.00;99302.59;5037584;28;20041;-85
2021/12/04 02:51:10;;;;;;;0.20;0.20;;;;;;;2.18;100.00;99288.31;5034824;28;20049;-85
2021/12/04 02:53:43;;;;;;;0.20;0.20;;;;;;;2.17;100.00;99292.06;5036848;28;20049;-85
2021/12/04 02:56:17;;;;;;;0.20;0.20;;;;;;;2.14;100.00;99292.59;5037016;28;20045;-85
2021/12/04 02:58:53;;;;;;;0.20;0.20;;;;;;;2.12;100.00;99297.41;5035197;28;20493;-85
2021/12/04 03:01:26;;;;;;;0.20;0.20;;;;;;;2.27;100.00;99291.31;5034362;28;20058;-85
2021/12/04 03:04:07;;;;;;;0.30;0.30;;;;;;;2.15;100.00;99296.06;5039569;28;20063;-85
2021/12/04 03:06:41;;;;;;;0.20;0.20;;;;;;;2.13;100.00;99280.22;5039783;28;20049;-85
2021/12/04 03:09:09;;;;;;;0.20;0.20;;;;;;;2.20;100.00;99293.44;5029577;28;20068;-85
2021/12/04 03:11:43;;;;;;;0.20;0.20;;;;;;;2.20;100.00;99291.53;5038000;28;20056;-85
2021/12/04 03:14:19;;;;;;;0.20;0.20;;;;;;;2.07;100.00;99267.03;5029609;28;20050;-85
2021/12/04 03:16:52;;;;;;;0.20;0.20;;;;;;;2.17;100.00;99293.97;5035156;28;20041;-85
2021/12/04 03:19:25;;;;;;;0.20;0.20;;;;;;;2.32;100.00;99296.72;5030982;28;20041;-85
2021/12/04 03:21:56;;;;;;;0.20;0.20;;;;;;;2.19;100.00;99302.53;5031171;28;20040;-85
2021/12/04 03:24:30;;;;;;;0.20;0.20;;;;;;;2.14;100.00;99294.44;5029305;28;20054;-84
2021/12/04 03:26:59;;;;;;;0.10;0.10;;;;;;;2.19;100.00;99297.16;5029544;28;20060;-85
2021/12/04 03:29:35;;;;;;;0.20;0.20;;;;;;;2.17;100.00;99297.44;5027369;28;20054;-85
2021/12/04 03:32:37;;;;;;;0.20;0.20;;;;;;;2.13;100.00;99285.59;5042306;28;20056;-85
2021/12/04 03:35:22;;;;;;;0.20;0.20;;;;;;;2.21;100.00;99287.81;5024661;28;20058;-86
2021/12/04 03:40:55;;;;;;;0.20;0.20;;;;;;;2.25;100.00;99285.41;5034880;28;20049;-86
2021/12/04 03:43:29;;;;;;;0.10;0.10;;;;;;;2.25;100.00;99281.91;5046423;28;20045;-85
2021/12/04 03:46:06;;;;;;;0.20;0.20;;;;;;;2.17;100.00;99283.22;5032423;28;20056;-85
2021/12/04 03:48:53;;;;;;;0.20;0.20;;;;;;;2.17;100.00;99284.00;5031453;28;20053;-85
2021/12/04 03:51:22;;;;;;;0.20;0.20;;;;;;;2.18;100.00;99276.75;5034954;28;20060;-85
2021/12/04 03:53:57;;;;;;;0.20;0.20;;;;;;;2.17;100.00;99286.69;5034489;28;20544;-85
2021/12/04 03:56:32;;;;;;;0.20;0.20;;;;;;;2.08;100.00;99257.91;5033729;28;20046;-85
2021/12/04 03:59:00;;;;;;;0.20;0.20;;;;;;;2.02;100.00;99257.09;5043907;28;20056;-86
2021/12/04 04:01:33;;;;;;;0.17;0.17;;;;;;;2.16;100.00;99274.34;5037230;28;20049;-86
2021/12/04 04:04:06;;;;;;;0.20;0.20;;;;;;;2.07;100.00;99259.78;5036418;28;20517;-86
2021/12/04 04:06:39;;;;;;;0.20;0.20;;;;;;;2.11;100.00;99270.81;5032183;28;20037;-86
2021/12/04 04:09:09;;;;;;;0.20;0.20;;;;;;;2.17;100.00;99269.78;5037296;28;20052;-86
2021/12/04 04:11:37;;;;;;;0.20;0.20;;;;;;;2.15;100.00;99266.56;5029158;28;20470;-85
2021/12/04 04:14:11;;;;;;;0.20;0.20;;;;;;;2.14;100.00;99255.03;5026073;28;20061;-86
2021/12/04 04:16:44;;;;;;;0.28;0.28;;;;;;;2.20;100.00;99271.97;5034366;28;20041;-85
2021/12/04 04:19:17;;;;;;;0.20;0.20;;;;;;;2.09;100.00;99256.88;5032940;28;20060;-84
2021/12/04 04:21:46;;;;;;;0.10;0.10;;;;;;;2.21;100.00;99260.97;5032854;28;20041;-86
2021/12/04 04:24:17;;;;;;;0.20;0.20;;;;;;;2.03;100.00;99245.25;5033099;28;20048;-85
2021/12/04 04:26:51;;;;;;;0.22;0.22;;;;;;;2.13;100.00;99260.66;5032899;28;20067;-86
2021/12/04 04:29:25;;;;;;;0.20;0.20;;;;;;;2.11;100.00;99252.03;5031141;28;20053;-85
2021/12/04 04:31:58;;;;;;;0.20;0.20;;;;;;;2.15;100.00;99248.56;5029965;28;20052;-86
2021/12/04 04:34:34;;;;;;;0.10;0.10;;;;;;;2.12;100.00;99246.41;5039867;28;20501;-86
2021/12/04 04:37:14;;;;;;;0.20;0.20;;;;;;;2.15;100.00;99245.88;5031215;28;20498;-86
2021/12/04 04:40:18;;;;;;;0.20;0.20;;;;;;;2.16;100.00;99246.69;5029529;28;20053;-83
2021/12/04 05:10:13;;;;;;;0.20;0.20;;;;;;;2.18;100.00;99240.00;5033604;28;20049;-85
2021/12/04 05:11:19;;;;;;;0.20;0.20;;;;;;;2.10;100.00;99247.72;5033245;28;20113;-85
2021/12/04 05:13:55;;;;;;;0.20;0.20;;;;;;;2.09;100.00;99252.28;5025905;28;20053;-85
2021/12/04 05:16:40;;;;;;;0.30;0.30;;;;;;;2.07;100.00;99246.38;5031210;28;20053;-84
2021/12/04 05:19:25;;;;;;;0.20;0.20;;;;;;;2.11;100.00;99252.03;5029785;28;20041;-85
2021/12/04 05:21:59;;;;;;;0.20;0.20;;;;;;;2.12;100.00;99253.66;5032910;28;20041;-85
2021/12/04 05:24:32;;;;;;;0.20;0.20;;;;;;;2.09;100.00;99254.97;5030354;28;20049;-85
2021/12/04 05:27:07;;;;;;;0.20;0.20;;;;;;;2.13;100.00;99263.34;5045679;28;20402;-84
2021/12/04 05:29:41;;;;;;;0.20;0.20;;;;;;;2.05;100.00;99261.94;5022825;28;20065;-84
2021/12/04 05:32:16;;;;;;;0.20;0.20;;;;;;;2.18;100.00;99261.47;5028048;28;20049;-84
2021/12/04 05:34:49;;;;;;;0.20;0.20;;;;;;;2.13;100.00;99252.59;5029002;28;20052;-84
2021/12/04 05:37:23;;;;;;;0.10;0.10;;;;;;;2.08;100.00;99244.50;5032353;28;20046;-83
2021/12/04 05:39:56;;;;;;;0.20;0.20;;;;;;;2.19;100.00;99241.59;5043169;28;20045;-84
2021/12/04 05:42:30;;;;;;;0.17;0.17;;;;;;;2.11;100.00;99243.97;5040539;28;20057;-83
2021/12/04 05:45:08;;;;;;;0.20;0.20;;;;;;;2.19;100.00;99246.19;5034810;28;20485;-84
2021/12/04 05:47:42;;;;;;;0.20;0.20;;;;;;;2.14;100.00;99238.91;5039386;28;20052;-83
2021/12/04 05:50:33;;;;;;;0.30;0.30;;;;;;;2.12;100.00;99237.56;5040365;28;20478;-84
2021/12/04 05:53:17;;;;;;;0.20;0.20;;;;;;;2.17;100.00;99234.91;5039769;28;20049;-84
2021/12/04 05:55:54;;;;;;;0.20;0.20;;;;;;;2.07;100.00;99235.63;5033077;28;20045;-84
2021/12/04 05:58:30;;;;;;;0.20;0.20;;;;;;;2.10;100.00;99239.66;5028250;28;20049;-84
2021/12/04 06:01:06;;;;;;;0.20;0.20;;;;;;;2.17;100.00;99242.97;5028243;28;20057;-84
2021/12/04 06:03:39;;;;;;;0.20;0.20;;;;;;;2.13;100.00;99250.72;5026969;28;20046;-84
2021/12/04 06:06:13;;;;;;;0.20;0.20;;;;;;;2.14;100.00;99254.19;5028121;28;20516;-84
2021/12/04 06:08:47;;;;;;;0.20;0.20;;;;;;;2.16;100.00;99252.06;5038424;28;20052;-84
2021/12/04 06:11:20;;;;;;;0.20;0.20;;;;;;;2.12;100.00;99259.81;5030074;28;20052;-84
2021/12/04 06:13:49;;;;;;;0.20;0.20;;;;;;;2.11;100.00;99244.78;5028406;28;20042;-84
2021/12/04 06:16:23;;;;;;;0.20;0.20;;;;;;;2.16;100.00;99244.81;5036980;28;20064;-84
2021/12/04 06:18:58;;;;;;;0.28;0.28;;;;;;;2.07;100.00;99238.31;5024938;28;20049;-84
2021/12/04 06:24:22;;;;;;;0.10;0.10;;;;;;;2.11;100.00;99255.50;5037893;28;20380;-84
2021/12/04 06:26:55;;;;;;;0.20;0.20;;;;;;;2.18;100.00;99263.34;5033571;28;20068;-83
2021/12/04 06:29:28;;;;;;;0.20;0.20;;;;;;;2.14;100.00;99263.06;5037446;28;20436;-84
2021/12/04 06:32:03;;;;;;;0.20;0.20;;;;;;;2.14;100.00;99268.44;5040196;28;20482;-84
2021/12/04 06:34:37;;;;;;;0.10;0.10;;;;;;;2.14;100.00;99275.66;5036576;28;20048;-84
2021/12/04 06:37:10;;;;;;;0.20;0.20;;;;;;;2.10;100.00;99271.88;5043534;28;20049;-84
2021/12/04 06:39:43;;;;;;;0.20;0.20;;;;;;;2.11;100.00;99286.91;5032566;28;20057;-84
2021/12/04 06:42:17;;;;;;;0.20;0.20;;;;;;;1.97;100.00;99271.25;5035254;28;20493;-84
2021/12/04 06:44:53;;;;;;;0.13;0.13;;;;;;;2.03;100.00;99280.97;5031249;28;20045;-83
2021/12/04 06:47:29;;;;;;;0.20;0.20;;;;;;;2.07;100.00;99285.81;5033341;28;20171;-84
2021/12/04 06:50:03;;;;;;;0.17;0.17;;;;;;;2.07;100.00;99280.44;5031053;28;20048;-83
2021/12/04 06:52:38;;;;;;;0.15;0.15;;;;;;;2.10;100.00;99279.94;5034159;28;20060;-84
2021/12/04 06:55:14;;;;;;;0.20;0.20;;;;;;;2.00;100.00;99269.94;5036232;28;20045;-84
2021/12/04 06:57:48;;;;;;;0.25;0.25;;;;;;;1.96;100.00;99271.50;5031328;28;20049;-84
2021/12/04 07:00:22;;;;;;;0.20;0.20;;;;;;;2.04;100.00;99281.78;5029541;28;20049;-84
2021/12/04 07:02:52;;;;;;;0.20;0.20;;;;;;;1.96;100.00;99277.72;5035269;28;20052;-84
2021/12/04 07:05:25;;;;;;;0.20;0.20;;;;;;;1.95;100.00;99267.25;5032581;28;20068;-84
2021/12/04 07:07:58;;;;;;;0.20;0.20;;;;;;;1.97;100.00;99273.13;5035056;28;20465;-84
2021/12/04 07:10:32;;;;;;;0.20;0.20;;;;;;;2.02;100.00;99275.88;5033053;28;20044;-84
2021/12/04 07:13:06;;;;;;;0.20;0.20;;;;;;;2.05;100.00;99278.03;5032825;28;20054;-84
2021/12/04 07:15:41;;;;;;;0.30;0.30;;;;;;;2.00;100.00;99276.13;5029203;28;20041;-84
2021/12/04 07:18:11;;;;;;;0.30;0.30;;;;;;;2.07;100.00;99283.13;5030384;28;20045;-84
2021/12/04 07:20:44;;;;;;;0.20;0.20;;;;;;;2.08;100.00;99288.25;5030543;28;20052;-84
2021/12/04 07:23:18;;;;;;;0.20;0.20;;;;;;;2.08;100.00;99290.13;5029364;28;20056;-84
2021/12/04 07:25:51;;;;;;;0.20;0.20;;;;;;;2.09;100.00;99284.50;5031687;28;20064;-84
2021/12/04 07:28:24;;;;;;;0.20;0.20;;;;;;;2.09;100.00;99284.50;5042894;28;20045;-84
2021/12/04 07:30:58;;;;;;;0.13;0.13;;;;;;;2.06;100.00;99279.66;5036592;28;20053;-84
2021/12/04 07:33:32;;;;;;;0.20;0.20;;;;;;;2.06;100.00;99289.56;5032028;28;20513;-84
2021/12/04 07:36:06;;;;;;;0.20;0.20;;;;;;;2.11;100.00;99297.66;5030813;28;20050;-84
2021/12/04 07:38:35;;;;;;;0.20;0.20;;;;;;;2.09;100.00;99299.81;5031852;28;20060;-85
2021/12/04 07:41:10;;;;;;;0.20;0.20;;;;;;;2.07;100.00;99281.25;5032095;28;20409;-84
2021/12/04 07:43:44;;;;;;;0.20;0.20;;;;;;;2.04;100.00;99287.97;5037205;28;20465;-85
2021/12/04 07:46:12;;;;;;;0.20;0.20;;;;;;;2.14;100.00;99294.44;5039083;28;20398;-84
2021/12/04 07:48:48;;;;;;;0.20;0.20;;;;;;;2.15;100.00;99293.38;5040294;28;20045;-83
2021/12/04 07:51:17;;;;;;;0.20;0.20;;;;;;;2.09;100.00;99297.91;5033672;28;20048;-83
2021/12/04 07:53:47;;;;;;;0.30;0.30;;;;;;;2.14;100.00;99283.72;5035808;28;20053;-83
2021/12/04 07:56:20;;;;;;;0.20;0.20;;;;;;;2.12;100.00;99275.91;5033347;28;20044;-83
2021/12/04 07:58:54;;;;;;;0.30;0.30;;;;;;;2.17;100.00;99289.38;5031467;28;20058;-83
2021/12/04 08:01:23;;;;;;;0.20;0.20;;;;;;;2.13;100.00;99285.59;5033487;28;20498;-83
2021/12/04 08:03:57;;;;;;;0.30;0.30;;;;;;;2.15;100.00;99294.19;5030194;28;20037;-84
2021/12/04 08:06:33;;;;;;;0.30;0.30;;;;;;;2.18;100.00;99282.97;5044624;28;20046;-84
2021/12/04 08:09:01;;;;;;;0.20;0.20;;;;;;;2.18;100.00;99287.50;5037157;28;20052;-84
2021/12/04 08:11:34;;;;;;;0.20;0.20;;;;;;;2.17;100.00;99281.34;5033586;28;20041;-83
2021/12/04 08:14:08;;;;;;;0.20;0.20;;;;;;;2.14;100.00;99284.53;5028948;28;20462;-83
2021/12/04 08:16:41;;;;;;;0.22;0.22;;;;;;;2.12;100.00;99269.75;5031599;28;20041;-83
2021/12/04 08:19:15;;;;;;;0.20;0.20;;;;;;;2.09;100.00;99268.41;5041355;28;20041;-84
2021/12/04 08:21:48;;;;;;;0.20;0.20;;;;;;;2.19;100.00;99273.03;5038895;28;20037;-84
2021/12/04 08:24:17;;;;;;;0.20;0.20;;;;;;;2.25;100.00;99281.91;5040161;28;20044;-84
2021/12/04 08:26:50;;;;;;;0.15;0.15;;;;;;;2.24;100.00;99281.09;5030533;28;20049;-83
2021/12/04 08:29:18;;;;;;;0.20;0.20;;;;;;;2.30;100.00;99281.94;5027447;28;20052;-81
2021/12/04 08:31:47;;;;;;;0.20;0.20;;;;;;;2.28;100.00;99279.53;5032385;28;20053;-84
2021/12/04 08:34:18;;;;;;;0.20;0.20;;;;;;;2.33;100.00;99284.09;5032982;28;20041;-84
2021/12/04 08:36:52;;;;;;;0.20;0.20;;;;;;;2.29;100.00;99277.63;5036349;28;20044;-84
2021/12/04 08:39:25;;;;;;;0.20;0.20;;;;;;;2.38;100.00;99284.16;5028749;28;20383;-84
2021/12/04 08:41:59;;;;;;;0.30;0.30;;;;;;;2.35;100.00;99274.72;5034541;28;20044;-84
2021/12/04 08:44:33;;;;;;;0.20;0.20;;;;;;;2.37;100.00;99283.31;5039496;28;20041;-84
2021/12/04 08:47:06;;;;;;;0.20;0.20;;;;;;;2.51;100.00;99272.13;5042471;28;20053;-84
2021/12/04 08:49:36;;;;;;;0.20;0.20;;;;;;;2.46;100.00;99277.44;5036346;28;20062;-84
2021/12/04 08:52:05;;;;;;;0.20;0.20;;;;;;;2.21;100.00;99242.16;5058417;28;20045;-83
2021/12/04 08:54:34;;;;;;;0.20;0.20;;;;;;;2.39;100.00;99285.75;5037006;28;20046;-84
2021/12/04 08:57:07;;;;;;;0.20;0.20;;;;;;;2.40;100.00;99281.19;5032273;28;20670;-82
2021/12/04 08:59:40;;;;;;;0.20;0.20;;;;;;;2.45;100.00;99276.66;5030162;28;20075;-83
2021/12/04 09:02:14;;;;;;;0.22;0.22;;;;;;;2.35;100.00;99277.41;5035291;28;20492;-84
2021/12/04 09:04:50;;;;;;;0.28;0.28;;;;;;;2.37;100.00;99280.63;5034745;28;20045;-83
2021/12/04 09:07:23;;;;;;;0.20;0.20;;;;;;;2.35;100.00;99269.34;5034597;28;20057;-83
2021/12/04 09:09:57;;;;;;;0.30;0.30;;;;;;;2.20;100.00;99237.84;5034724;28;20049;-84
2021/12/04 09:12:31;;;;;;;0.30;0.30;;;;;;;2.50;100.00;99278.56;5032563;28;20048;-84
2021/12/04 09:15:06;;;;;;;0.20;0.20;;;;;;;2.53;100.00;99288.78;5033505;28;20547;-84
2021/12/04 09:17:34;;;;;;;0.20;0.20;;;;;;;2.52;100.00;99285.28;5038739;28;20045;-83
2021/12/04 09:20:12;;;;;;;0.20;0.20;;;;;;;2.53;100.00;99286.09;5034164;28;20080;-84
2021/12/04 09:22:40;;;;;;;0.20;0.20;;;;;;;2.53;100.00;99280.75;5032238;28;20053;-84
2021/12/04 09:25:17;;;;;;;0.20;0.20;;;;;;;2.54;100.00;99269.72;5030893;28;20049;-84
2021/12/04 09:28:01;;;;;;;0.20;0.20;;;;;;;2.54;100.00;99276.97;5036466;28;20041;-84
2021/12/04 09:30:50;;;;;;;0.20;0.20;;;;;;;2.60;100.00;99280.50;5026176;28;20064;-84
2021/12/04 10:02:12;;;;;;;0.20;0.20;;;;;;;2.71;100.00;99256.09;5046479;28;20053;-87
2021/12/04 10:16:55;;;;;;;0.20;0.20;;;;;;;2.72;100.00;99220.13;5036768;28;20053;-86
2021/12/04 10:19:41;;;;;;;0.20;0.20;;;;;;;2.72;100.00;99225.47;5034923;28;20049;-87
2021/12/04 10:22:25;;;;;;;0.20;0.20;;;;;;;2.71;100.00;99226.53;5031749;28;20096;-86
2021/12/04 10:33:55;;;;;;;0.20;0.20;;;;;;;2.79;100.00;99216.34;5030967;28;20211;-87
2021/12/04 10:36:28;;;;;;;0.20;0.20;;;;;;;2.65;100.00;99219.56;5019802;28;20068;-86
2021/12/04 10:39:02;;;;;;;0.20;0.20;;;;;;;2.79;100.00;99216.34;5019696;28;20045;-86
2021/12/04 10:41:31;;;;;;;0.10;0.10;;;;;;;2.82;100.00;99213.97;5034214;28;20511;-86
2021/12/04 10:44:12;;;;;;;0.20;0.20;;;;;;;2.62;100.00;99192.41;5031005;28;20049;-86
2021/12/04 10:46:52;;;;;;;0.25;0.25;;;;;;;2.72;100.00;99208.53;5034950;28;20046;-87
2021/12/04 10:49:42;;;;;;;0.20;0.20;;;;;;;2.63;100.00;99212.81;5034976;28;20050;-86
2021/12/04 10:52:28;;;;;;;0.30;0.30;;;;;;;2.64;100.00;99212.56;5033721;28;20060;-86
2021/12/04 10:55:13;;;;;;;0.20;0.20;;;;;;;2.67;100.00;99209.34;5031437;28;20041;-86
2021/12/04 10:58:20;;;;;;;0.20;0.20;;;;;;;2.59;100.00;99201.78;5033992;28;20044;-87
2021/12/04 11:01:05;;;;;;;0.20;0.20;;;;;;;2.63;100.00;99202.88;5029752;28;20057;-87
2021/12/04 11:03:47;;;;;;;0.20;0.20;;;;;;;2.43;100.00;99186.69;5030048;28;20053;-86
2021/12/04 11:26:41;;;;;;;0.20;0.20;;;;;;;2.49;100.00;99186.44;5030938;28;20420;-84
2021/12/04 11:38:06;;;;;;;0.30;0.30;;;;;;;2.67;100.00;99182.47;5030025;28;20057;-85
2021/12/04 11:43:36;;;;;;;0.20;0.20;;;;;;;2.76;100.00;99181.97;5034651;28;20049;-86
2021/12/04 11:46:20;;;;;;;0.20;0.20;;;;;;;2.69;100.00;99185.72;5033465;28;20701;-85
2021/12/04 11:48:56;;;;;;;0.20;0.20;;;;;;;2.70;100.00;99181.94;5033626;28;20056;-84
2021/12/04 11:51:27;;;;;;;0.20;0.20;;;;;;;2.73;100.00;99180.63;5035221;28;20065;-85
2021/12/04 11:54:12;;;;;;;0.30;0.30;;;;;;;2.44;100.00;99148.03;5033525;28;20417;-85
2021/12/04 11:56:45;;;;;;;0.20;0.20;;;;;;;2.63;100.00;99173.34;5031311;28;20059;-85
2021/12/04 11:59:14;;;;;;;0.25;0.25;;;;;;;2.67;100.00;99170.94;5029998;28;20057;-85
2021/12/04 12:01:42;;;;;;;0.20;0.20;;;;;;;2.63;100.00;99162.59;5030826;28;20542;-85
2021/12/04 12:04:15;;;;;;;0.20;0.20;;;;;;;2.70;100.00;99163.13;5032278;28;20056;-84
2021/12/04 12:06:50;;;;;;;0.20;0.20;;;;;;;2.68;100.00;99161.78;5047569;28;20057;-83
2021/12/04 12:09:27;;;;;;;0.20;0.20;;;;;;;2.73;100.00;99167.19;5019273;28;20052;-86
2021/12/04 12:12:02;;;;;;;0.20;0.20;;;;;;;2.74;100.00;99162.63;5028178;28;20060;-83
2021/12/04 12:14:39;;;;;;;0.20;0.20;;;;;;;2.60;100.00;99144.31;5045103;28;20057;-86
2021/12/04 12:17:13;;;;;;;0.20;0.20;;;;;;;2.67;100.00;99160.19;5033415;28;20826;-86
2021/12/04 12:19:53;;;;;;;0.20;0.20;;;;;;;2.68;100.00;99151.88;5028823;28;20057;-84
2021/12/04 12:22:39;;;;;;;0.20;0.20;;;;;;;2.77;100.00;99146.78;5029906;28;20050;-84
2021/12/04 12:25:24;;;;;;;0.17;0.17;;;;;;;2.79;100.00;99138.44;5027576;28;20525;-86
2021/12/04 12:33:42;;;;;;;0.20;0.20;;;;;;;2.76;100.00;99142.47;5047071;28;20058;-85
2021/12/04 12:36:20;;;;;;;0.20;0.20;;;;;;;2.57;100.00;99111.81;5024703;28;20042;-85
2021/12/04 12:38:57;;;;;;;0.20;0.20;;;;;;;2.76;100.00;99141.66;5053163;28;20045;-86
2021/12/04 12:41:29;;;;;;;0.20;0.20;;;;;;;2.77;100.00;99141.41;5035146;28;20049;-86
2021/12/04 12:44:08;;;;;;;0.30;0.30;;;;;;;2.79;100.00;99136.59;5044039;28;20053;-86
2021/12/04 12:46:45;;;;;;;0.30;0.30;;;;;;;2.79;100.00;99125.00;5038655;28;20057;-85
2021/12/04 12:49:23;;;;;;;0.20;0.20;;;;;;;2.84;100.00;99130.41;5030067;28;20044;-85
2021/12/04 12:52:00;;;;;;;0.20;0.20;;;;;;;2.87;100.00;99133.38;5031541;28;20053;-85
2021/12/04 12:54:38;;;;;;;0.20;0.20;;;;;;;2.83;100.00;99134.16;5034015;28;20402;-85
2021/12/04 12:57:10;;;;;;;0.30;0.30;;;;;;;2.84;100.00;99136.56;5033808;28;20045;-86
2021/12/04 13:00:00;;;;;;;0.20;0.20;;;;;;;2.82;100.00;99136.03;5043624;28;20404;-85
2021/12/04 13:14:09;;;;;;;0.20;0.20;;;;;;;2.78;100.00;99143.03;5036407;28;20068;-85
2021/12/04 13:16:45;;;;;;;0.20;0.20;;;;;;;2.73;100.00;99134.94;5032553;28;20041;-84
2021/12/04 13:19:15;;;;;;;0.20;0.20;;;;;;;2.78;100.00;99139.53;5026219;28;20042;-85
2021/12/04 13:21:51;;;;;;;0.20;0.20;;;;;;;2.70;100.00;99127.44;5032728;28;20058;-86
2021/12/04 13:24:23;;;;;;;0.17;0.17;;;;;;;2.68;100.00;99122.31;5045220;28;20041;-84
2021/12/04 13:26:54;;;;;;;0.20;0.20;;;;;;;2.75;100.00;99114.00;5029222;28;20041;-85
2021/12/04 13:29:28;;;;;;;0.20;0.20;;;;;;;2.64;100.00;99082.84;5029403;28;20056;-84
2021/12/04 13:32:03;;;;;;;0.20;0.20;;;;;;;2.79;100.00;99104.34;5042745;28;20076;-84
2021/12/04 13:34:37;;;;;;;0.20;0.20;;;;;;;2.76;100.00;99104.84;5013328;28;20061;-85
2021/12/04 13:37:14;;;;;;;0.30;0.30;;;;;;;2.62;100.00;99093.81;5040142;28;20405;-84
2021/12/04 13:39:44;;;;;;;0.20;0.20;;;;;;;2.67;100.00;99098.41;5031118;28;20056;-86
2021/12/04 13:42:13;;;;;;;0.20;0.20;;;;;;;2.69;100.00;99089.03;5027114;28;20049;-84
2021/12/04 13:44:46;;;;;;;0.20;0.20;;;;;;;2.65;100.00;99087.94;5020378;28;20057;-85
2021/12/04 13:47:15;;;;;;;0.20;0.20;;;;;;;2.64;100.00;99083.63;5030714;28;20068;-85
2021/12/04 13:49:55;;;;;;;0.20;0.20;;;;;;;2.41;100.00;99038.50;5026408;28;20049;-84
2021/12/04 13:52:31;;;;;;;0.20;0.20;;;;;;;2.70;100.00;99079.06;5030992;28;20056;-83
2021/12/04 13:55:09;;;;;;;0.20;0.20;;;;;;;2.67;100.00;99074.25;5028753;28;20681;-85
2021/12/04 13:57:41;;;;;;;0.20;0.20;;;;;;;2.54;100.00;99048.69;5049245;28;20056;-84
2021/12/04 14:00:16;;;;;;;0.20;0.20;;;;;;;2.70;100.00;99073.69;5026825;28;20042;-85
2021/12/04 14:02:45;;;;;;;0.20;0.20;;;;;;;2.69;100.00;99078.28;5030445;28;20053;-85
2021/12/04 14:05:22;;;;;;;0.20;0.20;;;;;;;2.63;100.00;99084.69;5025832;28;21165;-81
2021/12/04 14:07:58;;;;;;;0.20;0.20;;;;;;;2.59;100.00;99075.56;5025467;28;20041;-81
2021/12/04 14:10:34;;;;;;;0.20;0.20;;;;;;;2.62;100.00;99080.41;5025570;28;20037;-77
2021/12/04 14:13:14;;;;;;;0.20;0.20;;;;;;;2.58;100.00;99087.38;5010761;28;20045;-83
2021/12/04 14:15:50;;;;;;;0.20;0.20;;;;;;;2.54;100.00;99083.59;5028868;28;20061;-82
2021/12/04 14:18:26;;;;;;;0.20;0.20;;;;;;;2.50;100.00;99074.47;5029083;28;20498;-84
2021/12/04 14:21:01;;;;;;;0.20;0.20;;;;;;;2.53;100.00;99079.31;5026358;28;20049;-84
2021/12/04 14:23:35;;;;;;;0.20;0.20;;;;;;;2.53;100.00;99073.97;5028740;28;20037;-84
2021/12/04 14:26:09;;;;;;;0.20;0.20;;;;;;;2.49;100.00;99070.19;5034600;28;20054;-83